Portada
METAR-TAF:

METAR-TAF

Aeroports :

Liberia, Costa Rica

latitud: 10-37N, longitud: 085-26W, altitud: 80 m

Observació

L'informe es va fer fa 18 minuts, a les 18:00 UTC
Vent 15 kt del Est
Temperatura 33°C
Humitat 41%
Pressió 1009 hPa
Visibilitat 10 km o més
sense núvols per sota de 1500 mi sense presència de cumulonimbus.

METAR: MRLB 241800Z 08015KT CAVOK 33/18 A2981

Hora: 12:18 (18:18 UTC)

Pronòstic

L'informe es va fer fa 1 hora i 18 minuts, a les 17:00 UTC
Pronòstic vàlid del 24 a les 18 UTC al 25 a les 18 UTC
Vent 18 kt del Est/Nord-Est
Visibilitat 10 km o més
Escasses núvols a una alçada de 4000 ft
Temporalment
l' 25 a les 08 UTC al 25 a les 14 UTC
Vent 6 kt del Est/Nord-Est

TAF: MRLB 241700Z 2418/2518 07018KT 9999 FEW040 TX33/2420Z TN21/2511Z TEMPO 2508/2514 07006KT

Observacions i pronòstics meteorològics de més de 4000 aeroports (METAR i TAF).

Les estacions disponibles són els punts grocs i vermells al mapa.

Posi el ratolí al punt desitjat per veure el nom de l'estació.

Feu clic per veure les observacions i els pronòstics meteorològics.

Per canviar el mapa: feu clic els botons verds amb una creu de color negre per apropar; al botó verd amb un guió per allunyar la imatge; o en les fletxes verdes per a mapes adjacents.


METAR-TAF: